createdAt,value
2018-08-11T00:02:22.773Z,65.20
2018-08-11T00:04:55.172Z,64.90
2018-08-11T00:07:27.874Z,64.80
2018-08-11T00:10:00.606Z,65.00
2018-08-11T00:12:33.017Z,65.00
2018-08-11T00:15:06.679Z,64.90
2018-08-11T00:17:39.056Z,64.80
2018-08-11T00:20:13.266Z,64.80
2018-08-11T00:22:45.649Z,65.10
2018-08-11T00:25:18.172Z,66.30
2018-08-11T00:27:50.845Z,66.10
2018-08-11T00:30:23.314Z,65.50
2018-08-11T00:32:56.013Z,65.60
2018-08-11T00:35:28.822Z,66.30
2018-08-11T00:38:01.236Z,66.60
2018-08-11T00:40:33.664Z,67.20
2018-08-11T00:43:06.086Z,67.80
2018-08-11T00:45:38.529Z,67.00
2018-08-11T00:48:10.913Z,66.70
2018-08-11T00:50:43.560Z,66.50
2018-08-11T00:53:15.993Z,66.40
2018-08-11T00:55:48.409Z,65.70
2018-08-11T00:58:20.881Z,65.60
2018-08-11T01:00:53.537Z,65.50
2018-08-11T01:03:26.038Z,65.50
2018-08-11T01:05:58.448Z,66.00
2018-08-11T01:08:30.869Z,65.60
2018-08-11T01:11:03.449Z,65.70
2018-08-11T01:13:35.768Z,65.10
2018-08-11T01:16:08.201Z,65.80
2018-08-11T01:18:40.628Z,65.60
2018-08-11T01:21:13.045Z,66.20
2018-08-11T01:23:46.046Z,66.10
2018-08-11T01:26:18.450Z,65.90
2018-08-11T01:28:50.861Z,66.20
2018-08-11T01:31:23.260Z,66.30
2018-08-11T01:33:55.928Z,66.10
2018-08-11T01:36:28.401Z,66.20
2018-08-11T01:39:00.814Z,65.80
2018-08-11T01:41:33.237Z,66.60
2018-08-11T01:44:05.684Z,70.50
2018-08-11T01:46:38.088Z,73.40
2018-08-11T01:49:10.500Z,75.80
2018-08-11T01:51:42.909Z,79.40
2018-08-11T01:54:15.316Z,83.10
2018-08-11T01:56:47.700Z,83.50
2018-08-11T01:59:20.149Z,83.70
2018-08-11T02:01:52.548Z,84.30
2018-08-11T02:04:24.953Z,84.60
2018-08-11T02:06:57.360Z,83.00
2018-08-11T02:09:29.773Z,85.00
2018-08-11T02:12:02.195Z,87.80
2018-08-11T02:14:34.897Z,88.00
2018-08-11T02:17:07.634Z,90.10
2018-08-11T02:19:40.093Z,89.80
2018-08-11T02:22:12.735Z,90.20
2018-08-11T02:24:45.858Z,90.70
2018-08-11T02:27:18.234Z,90.00
2018-08-11T02:29:50.768Z,90.50
2018-08-11T02:32:23.157Z,90.50
2018-08-11T02:34:55.588Z,90.70
2018-08-11T02:37:27.981Z,90.30
2018-08-11T02:40:00.419Z,90.40
2018-08-11T02:42:32.817Z,90.40
2018-08-11T02:45:05.801Z,90.90
2018-08-11T02:47:38.198Z,91.40
2018-08-11T02:50:10.950Z,91.10
2018-08-11T02:52:43.341Z,91.30
2018-08-11T02:55:15.740Z,91.80
2018-08-11T02:57:48.137Z,91.60
2018-08-11T03:00:20.862Z,91.40
2018-08-11T03:02:53.545Z,95.50
2018-08-11T03:05:25.964Z,91.60
2018-08-11T03:07:58.363Z,91.90
2018-08-11T03:10:31.038Z,91.50
2018-08-11T03:13:03.460Z,91.80
2018-08-11T03:15:35.897Z,91.90
2018-08-11T03:18:08.301Z,91.60
2018-08-11T03:20:40.727Z,91.70
2018-08-11T03:23:13.186Z,92.10
2018-08-11T03:25:45.603Z,91.40
2018-08-11T03:28:18.000Z,91.80
2018-08-11T03:30:50.651Z,91.80
2018-08-11T03:33:23.331Z,91.60
2018-08-11T03:35:55.736Z,91.90
2018-08-11T03:38:28.156Z,91.80
2018-08-11T03:41:01.161Z,92.00
2018-08-11T03:43:33.841Z,91.90
2018-08-11T03:46:06.629Z,92.20
2018-08-11T03:48:39.003Z,92.30
2018-08-11T03:51:11.680Z,92.30
2018-08-11T03:53:44.288Z,92.30
2018-08-11T03:56:16.984Z,92.60
2018-08-11T03:58:49.660Z,92.40
2018-08-11T04:01:22.182Z,92.60
2018-08-11T04:03:54.865Z,92.70
2018-08-11T04:06:27.306Z,93.10
2018-08-11T04:08:59.706Z,93.10
2018-08-11T04:11:32.456Z,93.30
2018-08-11T04:14:05.121Z,93.40
2018-08-11T04:16:37.548Z,93.40
2018-08-11T04:19:10.216Z,93.50
2018-08-11T04:21:42.641Z,93.70
2018-08-11T04:24:15.059Z,93.80
2018-08-11T04:26:47.484Z,93.90
2018-08-11T04:29:19.884Z,93.90
2018-08-11T04:31:52.864Z,93.90
2018-08-11T04:34:25.529Z,93.90
2018-08-11T04:36:58.009Z,93.90
2018-08-11T04:39:30.421Z,94.00
2018-08-11T04:42:02.888Z,94.00
2018-08-11T04:44:35.229Z,93.70
2018-08-11T04:47:07.660Z,93.70
2018-08-11T04:49:40.065Z,93.80
2018-08-11T04:52:12.897Z,93.60
2018-08-11T04:54:45.630Z,93.60
2018-08-11T04:57:18.057Z,93.60
2018-08-11T04:59:50.731Z,93.10
2018-08-11T05:02:23.145Z,93.00
2018-08-11T05:04:55.553Z,92.40
2018-08-11T05:07:27.977Z,92.40
2018-08-11T05:10:00.402Z,92.20
2018-08-11T05:12:33.064Z,92.10
2018-08-11T05:15:05.837Z,92.10
2018-08-11T05:17:38.241Z,92.30
2018-08-11T05:20:10.641Z,92.20
2018-08-11T05:22:43.056Z,92.20
2018-08-11T05:25:15.570Z,91.80
2018-08-11T05:27:48.253Z,91.80
2018-08-11T05:30:20.648Z,90.30
2018-08-11T05:32:53.368Z,88.10
2018-08-11T05:35:25.772Z,82.80
2018-08-11T05:37:58.185Z,76.30
2018-08-11T05:40:30.897Z,76.60
2018-08-11T05:43:03.328Z,73.60
2018-08-11T05:45:35.761Z,71.40
2018-08-11T05:48:08.173Z,72.00
2018-08-11T05:50:40.601Z,71.40
2018-08-11T05:53:13.017Z,70.20
2018-08-11T05:55:45.409Z,70.60
2018-08-11T05:58:17.833Z,69.30
2018-08-11T06:00:50.242Z,71.10
2018-08-11T06:03:22.661Z,71.70
2018-08-11T06:05:55.075Z,70.60
2018-08-11T06:08:27.484Z,69.40
2018-08-11T06:11:00.200Z,67.40
2018-08-11T06:13:32.668Z,67.30
2018-08-11T06:16:05.412Z,68.30
2018-08-11T06:18:37.829Z,68.30
2018-08-11T06:21:10.286Z,69.00
2018-08-11T06:23:42.977Z,69.00
2018-08-11T06:26:15.387Z,69.60
2018-08-11T06:28:47.838Z,71.30
2018-08-11T06:31:20.246Z,72.10
2018-08-11T06:33:52.977Z,73.50
2018-08-11T06:36:25.710Z,73.90
2018-08-11T06:38:58.111Z,72.40
2018-08-11T06:41:30.757Z,71.80
2018-08-11T06:44:03.283Z,71.50
2018-08-11T06:46:36.107Z,69.00
2018-08-11T06:49:08.831Z,65.70
2018-08-11T06:51:41.261Z,64.00
2018-08-11T06:54:13.714Z,61.80
2018-08-11T06:56:46.119Z,58.70
2018-08-11T06:59:18.548Z,57.70
2018-08-11T07:01:50.954Z,57.40
2018-08-11T07:04:23.382Z,57.50
2018-08-11T07:06:56.043Z,57.20
2018-08-11T07:09:28.707Z,56.40
2018-08-11T07:12:01.114Z,55.70
2018-08-11T07:14:33.790Z,55.10
2018-08-11T07:17:06.473Z,54.60
2018-08-11T07:19:39.104Z,52.30
2018-08-11T07:22:11.544Z,51.30
2018-08-11T07:24:43.944Z,49.90
2018-08-11T07:27:16.982Z,49.70
2018-08-11T07:29:49.413Z,48.80
2018-08-11T07:32:21.866Z,47.30
2018-08-11T07:34:54.260Z,46.70
2018-08-11T07:37:26.941Z,46.20
2018-08-11T07:39:59.336Z,46.40
2018-08-11T07:42:31.793Z,46.60
2018-08-11T07:45:04.653Z,45.40
2018-08-11T07:47:37.417Z,46.30
2018-08-11T07:50:09.840Z,46.00
2018-08-11T07:52:42.201Z,46.10
2018-08-11T07:55:14.728Z,45.70
2018-08-11T08:00:19.396Z,44.10
2018-08-11T08:02:51.862Z,44.40
2018-08-11T08:05:24.319Z,44.40
2018-08-11T08:07:57.012Z,43.90
2018-08-11T08:10:29.722Z,43.20
2018-08-11T08:13:02.149Z,43.90
2018-08-11T08:15:34.556Z,45.00
2018-08-11T08:18:07.074Z,46.60
2018-08-11T08:20:39.478Z,47.10
2018-08-11T08:23:11.924Z,48.80
2018-08-11T08:25:44.597Z,49.90
2018-08-11T08:28:17.357Z,49.80
2018-08-11T08:30:49.762Z,49.30
2018-08-11T08:33:22.172Z,49.00
2018-08-11T08:35:54.599Z,50.80
2018-08-11T08:38:27.280Z,50.10
2018-08-11T08:40:59.695Z,48.70
2018-08-11T08:43:32.430Z,49.70
2018-08-11T08:46:04.855Z,50.90
2018-08-11T08:48:37.287Z,51.10
2018-08-11T08:51:09.679Z,50.10
2018-08-11T08:53:42.076Z,48.80
2018-08-11T08:56:14.753Z,48.20
2018-08-11T08:58:47.480Z,47.20
2018-08-11T09:01:20.375Z,47.50
2018-08-11T09:03:52.848Z,47.00
2018-08-11T09:06:25.256Z,46.40
2018-08-11T09:08:57.789Z,45.50
2018-08-11T09:11:30.464Z,44.70
2018-08-11T09:14:02.940Z,40.80
2018-08-11T09:16:35.360Z,41.30
2018-08-11T09:19:07.796Z,40.90
2018-08-11T09:21:41.336Z,39.70
2018-08-11T09:24:13.789Z,39.60
2018-08-11T09:26:46.497Z,42.00
2018-08-11T09:29:19.288Z,41.90
2018-08-11T09:31:51.594Z,43.30
2018-08-11T09:34:24.014Z,43.50
2018-08-11T09:36:56.764Z,40.60
2018-08-11T09:39:29.177Z,40.10
2018-08-11T09:42:01.589Z,39.40
2018-08-11T09:44:34.264Z,40.30
2018-08-11T09:47:07.003Z,39.20
2018-08-11T09:49:39.436Z,39.20
2018-08-11T09:52:12.212Z,38.50
2018-08-11T09:54:44.702Z,38.90
2018-08-11T09:57:17.348Z,39.60
2018-08-11T09:59:50.031Z,38.80
2018-08-11T10:02:22.425Z,37.80
2018-08-11T10:04:54.880Z,36.80
2018-08-11T10:07:27.355Z,38.90
2018-08-11T10:09:59.785Z,37.60
2018-08-11T10:12:32.205Z,37.20
2018-08-11T10:15:04.647Z,37.70
2018-08-11T10:17:37.057Z,37.30
2018-08-11T10:20:09.498Z,37.40
2018-08-11T10:22:41.909Z,36.60
2018-08-11T10:25:14.561Z,36.90
2018-08-11T10:27:47.308Z,38.90
2018-08-11T10:30:20.314Z,40.00
2018-08-11T10:32:52.731Z,39.30
2018-08-11T10:35:25.152Z,38.60
2018-08-11T10:37:57.672Z,38.80
2018-08-11T10:40:30.227Z,38.10
2018-08-11T10:43:02.646Z,40.30
2018-08-11T10:45:35.103Z,40.70
2018-08-11T10:48:08.265Z,41.20
2018-08-11T10:50:41.910Z,39.70
2018-08-11T10:53:14.408Z,36.10
2018-08-11T10:55:47.075Z,36.80
2018-08-11T10:58:19.462Z,37.00
2018-08-11T11:00:51.912Z,38.70
2018-08-11T11:03:24.337Z,40.70
2018-08-11T11:05:56.753Z,41.20
2018-08-11T11:08:29.551Z,40.60
2018-08-11T11:11:01.932Z,40.90
2018-08-11T11:13:34.329Z,40.60
2018-08-11T11:16:06.790Z,41.30
2018-08-11T11:18:39.210Z,41.30
2018-08-11T11:21:11.629Z,41.20
2018-08-11T11:23:44.061Z,41.80
2018-08-11T11:26:16.817Z,41.60
2018-08-11T11:28:49.221Z,40.40
2018-08-11T11:31:21.937Z,40.80
2018-08-11T11:33:54.608Z,41.60
2018-08-11T11:36:27.311Z,41.60
2018-08-11T11:39:00.190Z,40.20
2018-08-11T11:41:32.666Z,40.90
2018-08-11T11:44:05.113Z,40.80
2018-08-11T11:46:37.842Z,40.60
2018-08-11T11:49:10.598Z,41.90
2018-08-11T11:51:43.086Z,42.20
2018-08-11T11:54:15.522Z,43.10
2018-08-11T11:56:48.006Z,42.80
2018-08-11T11:59:20.486Z,43.80
2018-08-11T12:01:52.907Z,43.50
2018-08-11T12:04:25.521Z,44.10
2018-08-11T12:06:58.439Z,43.40
2018-08-11T12:09:31.120Z,44.00
2018-08-11T12:12:03.618Z,43.20
2018-08-11T12:14:36.344Z,42.20
2018-08-11T12:17:08.884Z,42.20
2018-08-11T12:19:41.532Z,41.20
2018-08-11T12:22:14.012Z,41.50
2018-08-11T12:24:46.435Z,41.40
2018-08-11T12:27:18.878Z,41.70
2018-08-11T12:29:51.317Z,40.70
2018-08-11T12:32:23.955Z,41.20
2018-08-11T12:34:56.355Z,41.90
2018-08-11T12:37:28.791Z,41.90
2018-08-11T12:40:01.474Z,41.60
2018-08-11T12:42:34.201Z,41.00
2018-08-11T12:45:06.610Z,42.20
2018-08-11T12:47:39.326Z,41.60
2018-08-11T12:50:12.034Z,42.20
2018-08-11T12:52:44.709Z,42.30
2018-08-11T12:55:17.289Z,41.70
2018-08-11T12:57:49.706Z,41.40
2018-08-11T13:00:22.166Z,41.30
2018-08-11T13:02:54.564Z,42.10
2018-08-11T13:05:26.997Z,42.80
2018-08-11T13:07:59.425Z,42.10
2018-08-11T13:10:32.134Z,42.40
2018-08-11T13:13:04.810Z,43.60
2018-08-11T13:15:37.491Z,43.20
2018-08-11T13:18:09.882Z,42.20
2018-08-11T13:20:42.365Z,42.30
2018-08-11T13:23:14.808Z,42.40
2018-08-11T13:25:47.244Z,41.80
2018-08-11T13:28:19.709Z,41.60
2018-08-11T13:30:52.128Z,41.40
2018-08-11T13:33:24.562Z,40.90
2018-08-11T13:35:56.990Z,41.20
2018-08-11T13:38:29.465Z,41.70
2018-08-11T13:41:02.109Z,42.00
2018-08-11T13:43:34.552Z,40.40
2018-08-11T13:46:07.382Z,41.40
2018-08-11T13:48:40.006Z,40.00
2018-08-11T13:51:12.416Z,40.90
2018-08-11T13:53:44.848Z,40.90
2018-08-11T13:56:17.564Z,40.00
2018-08-11T13:58:49.963Z,41.00
2018-08-11T14:01:22.385Z,40.90
2018-08-11T14:03:55.070Z,41.40
2018-08-11T14:06:27.530Z,41.50
2018-08-11T14:09:00.057Z,41.90
2018-08-11T14:11:32.477Z,41.80
2018-08-11T14:14:04.903Z,41.20
2018-08-11T14:16:37.349Z,40.90
2018-08-11T14:19:09.791Z,40.50
2018-08-11T14:21:42.342Z,40.30
2018-08-11T14:24:14.741Z,40.60
2018-08-11T14:26:47.201Z,40.60
2018-08-11T14:29:19.643Z,40.10
2018-08-11T14:31:52.293Z,40.50
2018-08-11T14:34:25.005Z,40.60
2018-08-11T14:36:57.480Z,40.80
2018-08-11T14:39:30.284Z,41.00
2018-08-11T14:42:02.696Z,40.00
2018-08-11T14:44:35.156Z,40.00
2018-08-11T14:47:07.621Z,40.70
2018-08-11T14:49:40.245Z,40.70
2018-08-11T14:52:12.661Z,40.60
2018-08-11T14:54:45.062Z,40.10
2018-08-11T14:57:17.484Z,40.50
2018-08-11T14:59:49.892Z,40.40
2018-08-11T15:02:22.836Z,41.00
2018-08-11T15:04:55.241Z,40.90
2018-08-11T15:07:27.655Z,41.20
2018-08-11T15:10:00.366Z,41.70
2018-08-11T15:12:32.780Z,41.40
2018-08-11T15:15:05.465Z,41.70
2018-08-11T15:17:38.395Z,40.80
2018-08-11T15:20:11.132Z,41.80
2018-08-11T15:22:43.825Z,41.60
2018-08-11T15:25:16.530Z,41.00
2018-08-11T15:27:49.181Z,41.50
2018-08-11T15:30:21.844Z,41.50
2018-08-11T15:32:54.251Z,41.80
2018-08-11T15:35:26.712Z,41.50
2018-08-11T15:37:59.124Z,41.90
2018-08-11T15:40:31.657Z,42.30
2018-08-11T15:43:04.361Z,42.30
2018-08-11T15:45:36.763Z,42.20
2018-08-11T15:48:09.180Z,42.80
2018-08-11T15:50:41.596Z,42.60
2018-08-11T15:53:14.029Z,42.90
2018-08-11T15:55:46.527Z,42.40
2018-08-11T15:58:18.949Z,42.50
2018-08-11T16:00:51.345Z,42.60
2018-08-11T16:03:24.021Z,42.50
2018-08-11T16:05:56.422Z,42.30
2018-08-11T16:08:29.102Z,42.90
2018-08-11T16:11:01.743Z,42.70
2018-08-11T16:13:34.458Z,41.90
2018-08-11T16:16:06.858Z,42.40
2018-08-11T16:18:39.276Z,42.00
2018-08-11T16:21:11.680Z,41.50
2018-08-11T16:23:44.110Z,41.20
2018-08-11T16:26:16.624Z,42.50
2018-08-11T16:28:49.052Z,41.80
2018-08-11T16:31:21.468Z,41.70
2018-08-11T16:33:54.148Z,42.20
2018-08-11T16:36:26.550Z,42.10
2018-08-11T16:38:58.973Z,42.50
2018-08-11T16:41:31.653Z,42.70
2018-08-11T16:44:04.092Z,42.10
2018-08-11T16:46:36.513Z,42.20
2018-08-11T16:49:08.995Z,42.70
2018-08-11T16:51:41.651Z,43.10
2018-08-11T16:54:14.064Z,43.20
2018-08-11T16:56:46.931Z,43.40
2018-08-11T16:59:19.743Z,43.00
2018-08-11T17:01:52.155Z,42.10
2018-08-11T17:04:25.552Z,42.70
2018-08-11T17:06:58.030Z,43.20
2018-08-11T17:09:30.525Z,43.10
2018-08-11T17:12:02.933Z,43.40
2018-08-11T17:14:35.410Z,42.80
2018-08-11T17:17:07.841Z,42.60
2018-08-11T17:19:40.271Z,43.20
2018-08-11T17:22:12.695Z,42.90
2018-08-11T17:24:45.109Z,43.10
2018-08-11T17:27:17.557Z,43.60
2018-08-11T17:29:50.525Z,42.80
2018-08-11T17:32:22.955Z,42.60
2018-08-11T17:34:55.429Z,43.80
2018-08-11T17:37:27.864Z,43.30
2018-08-11T17:40:00.633Z,42.90
2018-08-11T17:42:33.982Z,43.60
2018-08-11T17:45:07.388Z,43.60
2018-08-11T17:47:40.114Z,42.60
2018-08-11T17:50:12.637Z,43.10
2018-08-11T17:52:45.391Z,43.60
2018-08-11T17:55:17.927Z,43.40
2018-08-11T17:57:50.325Z,43.70
2018-08-11T18:00:22.773Z,43.90
2018-08-11T18:02:55.393Z,43.50
2018-08-11T18:05:27.812Z,43.90
2018-08-11T18:08:00.250Z,43.60
2018-08-11T18:10:32.976Z,43.40
2018-08-11T18:13:05.404Z,43.60
2018-08-11T18:15:37.816Z,43.60
2018-08-11T18:18:10.241Z,44.10
2018-08-11T18:20:42.641Z,44.40
2018-08-11T18:23:15.076Z,44.40
2018-08-11T18:25:47.512Z,44.40
2018-08-11T18:28:19.920Z,44.30
2018-08-11T18:30:52.353Z,44.40
2018-08-11T18:33:25.138Z,44.80
2018-08-11T18:35:57.569Z,45.00
2018-08-11T18:38:29.965Z,45.10
2018-08-11T18:41:02.401Z,45.10
2018-08-11T18:43:34.806Z,45.50
2018-08-11T18:46:07.496Z,45.40
2018-08-11T18:48:39.914Z,45.60
2018-08-11T18:51:12.350Z,45.70
2018-08-11T18:53:44.743Z,45.80
2018-08-11T18:56:17.406Z,46.10
2018-08-11T18:58:50.083Z,46.20
2018-08-11T19:01:22.505Z,46.60
2018-08-11T19:03:54.936Z,46.60
2018-08-11T19:06:27.727Z,47.00
2018-08-11T19:09:00.105Z,47.10
2018-08-11T19:11:32.760Z,47.50
2018-08-11T19:14:05.235Z,47.80
2018-08-11T19:16:37.710Z,48.00
2018-08-11T19:19:10.145Z,48.00
2018-08-11T19:24:21.686Z,48.70
2018-08-11T19:26:54.370Z,48.80
2018-08-11T19:29:26.780Z,48.80
2018-08-11T19:31:59.212Z,49.00
2018-08-11T19:34:31.688Z,49.90
2018-08-11T19:37:04.208Z,50.20
2018-08-11T19:39:36.636Z,49.90
2018-08-11T19:42:09.057Z,50.10
2018-08-11T19:44:41.481Z,50.00
2018-08-11T19:47:13.904Z,50.50
2018-08-11T19:49:46.632Z,50.60
2018-08-11T19:52:19.293Z,50.90
2018-08-11T19:54:52.093Z,50.80
2018-08-11T19:57:24.493Z,51.30
